sensor_id;sensor_type;location;lat;lon;timestamp;P1;durP1;ratioP1;P2;durP2;ratioP2
74471;SDS011;62920;53.572;10.050;2023-04-24T00:00:00;6.03;;;3.50;;
74471;SDS011;62920;53.572;10.050;2023-04-24T00:02:26;6.35;;;3.42;;
74471;SDS011;62920;53.572;10.050;2023-04-24T00:04:51;6.90;;;3.47;;
74471;SDS011;62920;53.572;10.050;2023-04-24T00:07:17;10.25;;;3.70;;
74471;SDS011;62920;53.572;10.050;2023-04-24T00:09:43;5.78;;;3.55;;
74471;SDS011;62920;53.572;10.050;2023-04-24T00:12:08;7.82;;;3.35;;
74471;SDS011;62920;53.572;10.050;2023-04-24T00:14:34;7.18;;;3.42;;
74471;SDS011;62920;53.572;10.050;2023-04-24T00:17:00;8.15;;;3.55;;
74471;SDS011;62920;53.572;10.050;2023-04-24T00:19:27;5.45;;;3.03;;
74471;SDS011;62920;53.572;10.050;2023-04-24T00:21:53;6.30;;;3.38;;
74471;SDS011;62920;53.572;10.050;2023-04-24T00:24:19;5.93;;;3.33;;
74471;SDS011;62920;53.572;10.050;2023-04-24T00:26:44;5.68;;;3.33;;
74471;SDS011;62920;53.572;10.050;2023-04-24T00:29:10;5.90;;;3.58;;
74471;SDS011;62920;53.572;10.050;2023-04-24T00:31:35;5.38;;;3.38;;
74471;SDS011;62920;53.572;10.050;2023-04-24T00:34:01;7.13;;;3.47;;
74471;SDS011;62920;53.572;10.050;2023-04-24T00:36:27;6.47;;;3.30;;
74471;SDS011;62920;53.572;10.050;2023-04-24T00:38:53;9.45;;;3.75;;
74471;SDS011;62920;53.572;10.050;2023-04-24T00:41:19;5.50;;;3.50;;
74471;SDS011;62920;53.572;10.050;2023-04-24T00:43:44;6.30;;;3.55;;
74471;SDS011;62920;53.572;10.050;2023-04-24T00:46:10;6.72;;;3.83;;
74471;SDS011;62920;53.572;10.050;2023-04-24T00:48:37;7.50;;;3.67;;
74471;SDS011;62920;53.572;10.050;2023-04-24T00:51:04;6.10;;;3.58;;
74471;SDS011;62920;53.572;10.050;2023-04-24T00:53:29;5.28;;;3.30;;
74471;SDS011;62920;53.572;10.050;2023-04-24T00:55:55;5.93;;;3.65;;
74471;SDS011;62920;53.572;10.050;2023-04-24T00:58:21;5.80;;;3.15;;
74471;SDS011;62920;53.572;10.050;2023-04-24T01:00:46;6.57;;;3.70;;
74471;SDS011;62920;53.572;10.050;2023-04-24T01:03:13;6.38;;;3.65;;
74471;SDS011;62920;53.572;10.050;2023-04-24T01:05:39;7.85;;;3.67;;
74471;SDS011;62920;53.572;10.050;2023-04-24T01:08:04;6.80;;;3.67;;
74471;SDS011;62920;53.572;10.050;2023-04-24T01:10:31;7.30;;;3.90;;
74471;SDS011;62920;53.572;10.050;2023-04-24T01:12:58;6.47;;;3.90;;
74471;SDS011;62920;53.572;10.050;2023-04-24T01:15:24;6.10;;;4.03;;
74471;SDS011;62920;53.572;10.050;2023-04-24T01:17:49;6.97;;;3.88;;
74471;SDS011;62920;53.572;10.050;2023-04-24T01:20:15;6.13;;;3.95;;
74471;SDS011;62920;53.572;10.050;2023-04-24T01:25:07;7.05;;;3.50;;
74471;SDS011;62920;53.572;10.050;2023-04-24T01:27:32;5.88;;;3.33;;
74471;SDS011;62920;53.572;10.050;2023-04-24T01:29:58;4.78;;;3.30;;
74471;SDS011;62920;53.572;10.050;2023-04-24T01:32:23;5.50;;;3.50;;
74471;SDS011;62920;53.572;10.050;2023-04-24T01:34:49;5.15;;;3.50;;
74471;SDS011;62920;53.572;10.050;2023-04-24T01:37:15;6.40;;;3.17;;
74471;SDS011;62920;53.572;10.050;2023-04-24T01:39:41;5.63;;;3.15;;
74471;SDS011;62920;53.572;10.050;2023-04-24T01:42:07;6.20;;;3.45;;
74471;SDS011;62920;53.572;10.050;2023-04-24T01:44:33;4.60;;;2.75;;
74471;SDS011;62920;53.572;10.050;2023-04-24T01:46:59;5.43;;;2.88;;
74471;SDS011;62920;53.572;10.050;2023-04-24T01:51:51;4.93;;;2.88;;
74471;SDS011;62920;53.572;10.050;2023-04-24T01:54:16;3.80;;;2.38;;
74471;SDS011;62920;53.572;10.050;2023-04-24T01:56:42;3.90;;;2.25;;
74471;SDS011;62920;53.572;10.050;2023-04-24T01:59:09;4.03;;;2.33;;
74471;SDS011;62920;53.572;10.050;2023-04-24T02:01:36;4.53;;;2.60;;
74471;SDS011;62920;53.572;10.050;2023-04-24T02:04:02;4.53;;;2.50;;
74471;SDS011;62920;53.572;10.050;2023-04-24T02:06:28;7.15;;;2.28;;
74471;SDS011;62920;53.572;10.050;2023-04-24T02:08:53;4.82;;;2.38;;
74471;SDS011;62920;53.572;10.050;2023-04-24T02:11:19;4.55;;;2.15;;
74471;SDS011;62920;53.572;10.050;2023-04-24T02:13:44;4.20;;;2.30;;
74471;SDS011;62920;53.572;10.050;2023-04-24T02:16:10;4.00;;;2.15;;
74471;SDS011;62920;53.572;10.050;2023-04-24T02:18:35;5.68;;;2.40;;
74471;SDS011;62920;53.572;10.050;2023-04-24T02:21:01;4.57;;;2.70;;
74471;SDS011;62920;53.572;10.050;2023-04-24T02:23:26;4.25;;;2.22;;
74471;SDS011;62920;53.572;10.050;2023-04-24T02:25:52;3.55;;;2.17;;
74471;SDS011;62920;53.572;10.050;2023-04-24T02:28:18;4.95;;;2.20;;
74471;SDS011;62920;53.572;10.050;2023-04-24T02:30:43;4.57;;;2.47;;
74471;SDS011;62920;53.572;10.050;2023-04-24T02:33:09;3.85;;;2.22;;
74471;SDS011;62920;53.572;10.050;2023-04-24T02:35:34;3.83;;;2.13;;
74471;SDS011;62920;53.572;10.050;2023-04-24T02:38:00;4.38;;;2.00;;
74471;SDS011;62920;53.572;10.050;2023-04-24T02:40:25;4.88;;;2.10;;
74471;SDS011;62920;53.572;10.050;2023-04-24T02:42:50;4.18;;;2.22;;
74471;SDS011;62920;53.572;10.050;2023-04-24T02:45:16;4.50;;;1.95;;
74471;SDS011;62920;53.572;10.050;2023-04-24T02:47:41;4.18;;;2.08;;
74471;SDS011;62920;53.572;10.050;2023-04-24T02:50:07;5.53;;;2.20;;
74471;SDS011;62920;53.572;10.050;2023-04-24T02:52:32;4.40;;;1.92;;
74471;SDS011;62920;53.572;10.050;2023-04-24T02:54:58;5.00;;;2.20;;
74471;SDS011;62920;53.572;10.050;2023-04-24T02:57:23;3.40;;;1.75;;
74471;SDS011;62920;53.572;10.050;2023-04-24T02:59:48;4.07;;;1.60;;
74471;SDS011;62920;53.572;10.050;2023-04-24T03:02:14;4.43;;;1.60;;
74471;SDS011;62920;53.572;10.050;2023-04-24T03:04:39;3.85;;;1.42;;
74471;SDS011;62920;53.572;10.050;2023-04-24T03:07:05;2.83;;;1.40;;
74471;SDS011;62920;53.572;10.050;2023-04-24T03:09:30;3.67;;;1.55;;
74471;SDS011;62920;53.572;10.050;2023-04-24T03:11:56;3.58;;;1.80;;
74471;SDS011;62920;53.572;10.050;2023-04-24T03:14:22;6.15;;;1.73;;
74471;SDS011;62920;53.572;10.050;2023-04-24T03:16:47;3.78;;;1.50;;
74471;SDS011;62920;53.572;10.050;2023-04-24T03:19:12;4.95;;;2.00;;
74471;SDS011;62920;53.572;10.050;2023-04-24T03:21:38;8.07;;;1.63;;
74471;SDS011;62920;53.572;10.050;2023-04-24T03:24:06;5.38;;;1.38;;
74471;SDS011;62920;53.572;10.050;2023-04-24T03:26:32;4.05;;;1.40;;
74471;SDS011;62920;53.572;10.050;2023-04-24T03:28:57;2.90;;;1.30;;
74471;SDS011;62920;53.572;10.050;2023-04-24T03:31:23;3.05;;;1.30;;
74471;SDS011;62920;53.572;10.050;2023-04-24T03:33:48;2.78;;;1.25;;
74471;SDS011;62920;53.572;10.050;2023-04-24T03:36:14;3.60;;;1.15;;
74471;SDS011;62920;53.572;10.050;2023-04-24T03:38:40;3.65;;;1.30;;
74471;SDS011;62920;53.572;10.050;2023-04-24T03:41:05;3.85;;;1.30;;
74471;SDS011;62920;53.572;10.050;2023-04-24T03:43:30;2.75;;;1.20;;
74471;SDS011;62920;53.572;10.050;2023-04-24T03:45:58;3.28;;;1.13;;
74471;SDS011;62920;53.572;10.050;2023-04-24T03:48:23;3.83;;;1.10;;
74471;SDS011;62920;53.572;10.050;2023-04-24T03:50:49;3.63;;;1.17;;
74471;SDS011;62920;53.572;10.050;2023-04-24T03:53:15;4.47;;;1.35;;
74471;SDS011;62920;53.572;10.050;2023-04-24T03:55:40;3.75;;;1.42;;
74471;SDS011;62920;53.572;10.050;2023-04-24T03:58:05;4.32;;;1.42;;
74471;SDS011;62920;53.572;10.050;2023-04-24T04:00:31;3.15;;;1.30;;
74471;SDS011;62920;53.572;10.050;2023-04-24T04:02:57;3.03;;;1.17;;
74471;SDS011;62920;53.572;10.050;2023-04-24T04:05:22;3.83;;;1.20;;
74471;SDS011;62920;53.572;10.050;2023-04-24T04:07:48;2.65;;;1.33;;
74471;SDS011;62920;53.572;10.050;2023-04-24T04:10:13;2.80;;;1.17;;
74471;SDS011;62920;53.572;10.050;2023-04-24T04:12:39;2.72;;;1.20;;
74471;SDS011;62920;53.572;10.050;2023-04-24T04:15:04;2.75;;;1.10;;
74471;SDS011;62920;53.572;10.050;2023-04-24T04:17:31;3.25;;;1.58;;
74471;SDS011;62920;53.572;10.050;2023-04-24T04:19:57;4.53;;;1.23;;
74471;SDS011;62920;53.572;10.050;2023-04-24T04:22:22;2.72;;;1.15;;
74471;SDS011;62920;53.572;10.050;2023-04-24T04:24:48;3.20;;;1.27;;
74471;SDS011;62920;53.572;10.050;2023-04-24T04:27:13;2.80;;;1.10;;
74471;SDS011;62920;53.572;10.050;2023-04-24T04:29:39;3.55;;;1.13;;
74471;SDS011;62920;53.572;10.050;2023-04-24T04:32:05;3.30;;;1.33;;
74471;SDS011;62920;53.572;10.050;2023-04-24T04:34:31;4.68;;;1.30;;
74471;SDS011;62920;53.572;10.050;2023-04-24T04:36:56;5.70;;;1.00;;
74471;SDS011;62920;53.572;10.050;2023-04-24T04:39:25;3.58;;;1.20;;
74471;SDS011;62920;53.572;10.050;2023-04-24T04:41:51;3.03;;;1.00;;
74471;SDS011;62920;53.572;10.050;2023-04-24T04:44:16;3.53;;;1.20;;
74471;SDS011;62920;53.572;10.050;2023-04-24T04:46:41;3.45;;;1.13;;
74471;SDS011;62920;53.572;10.050;2023-04-24T04:49:07;3.95;;;1.00;;
74471;SDS011;62920;53.572;10.050;2023-04-24T04:51:33;3.30;;;0.98;;
74471;SDS011;62920;53.572;10.050;2023-04-24T04:53:59;2.22;;;1.00;;
74471;SDS011;62920;53.572;10.050;2023-04-24T04:56:25;2.60;;;1.13;;
74471;SDS011;62920;53.572;10.050;2023-04-24T04:58:51;3.97;;;1.13;;
74471;SDS011;62920;53.572;10.050;2023-04-24T05:01:16;6.20;;;1.60;;
74471;SDS011;62920;53.572;10.050;2023-04-24T05:03:42;2.60;;;1.10;;
74471;SDS011;62920;53.572;10.050;2023-04-24T05:06:07;3.92;;;1.23;;
74471;SDS011;62920;53.572;10.050;2023-04-24T05:08:33;4.68;;;1.10;;
74471;SDS011;62920;53.572;10.050;2023-04-24T05:10:58;2.80;;;1.10;;
74471;SDS011;62920;53.572;10.050;2023-04-24T05:13:24;2.70;;;1.15;;
74471;SDS011;62920;53.572;10.050;2023-04-24T05:15:49;2.30;;;0.90;;
74471;SDS011;62920;53.572;10.050;2023-04-24T05:18:14;7.25;;;1.05;;
74471;SDS011;62920;53.572;10.050;2023-04-24T05:20:40;2.15;;;0.80;;
74471;SDS011;62920;53.572;10.050;2023-04-24T05:23:08;3.88;;;0.90;;
74471;SDS011;62920;53.572;10.050;2023-04-24T05:25:33;2.30;;;0.82;;
74471;SDS011;62920;53.572;10.050;2023-04-24T05:28:00;2.63;;;0.88;;
74471;SDS011;62920;53.572;10.050;2023-04-24T05:30:26;4.07;;;0.95;;
74471;SDS011;62920;53.572;10.050;2023-04-24T05:32:51;2.38;;;0.85;;
74471;SDS011;62920;53.572;10.050;2023-04-24T05:35:16;2.47;;;0.80;;
74471;SDS011;62920;53.572;10.050;2023-04-24T05:37:43;2.47;;;0.90;;
74471;SDS011;62920;53.572;10.050;2023-04-24T05:40:09;4.10;;;0.70;;
74471;SDS011;62920;53.572;10.050;2023-04-24T05:42:35;2.33;;;1.05;;
74471;SDS011;62920;53.572;10.050;2023-04-24T05:45:00;2.50;;;0.80;;
74471;SDS011;62920;53.572;10.050;2023-04-24T05:47:26;2.30;;;1.02;;
74471;SDS011;62920;53.572;10.050;2023-04-24T05:49:51;3.38;;;1.10;;
74471;SDS011;62920;53.572;10.050;2023-04-24T05:54:43;2.07;;;0.77;;
74471;SDS011;62920;53.572;10.050;2023-04-24T05:57:08;3.03;;;0.90;;
74471;SDS011;62920;53.572;10.050;2023-04-24T05:59:36;4.22;;;1.00;;
74471;SDS011;62920;53.572;10.050;2023-04-24T06:02:02;2.38;;;0.90;;
74471;SDS011;62920;53.572;10.050;2023-04-24T06:04:27;3.83;;;1.20;;
74471;SDS011;62920;53.572;10.050;2023-04-24T06:06:53;2.55;;;1.00;;
74471;SDS011;62920;53.572;10.050;2023-04-24T06:09:21;3.22;;;1.30;;
74471;SDS011;62920;53.572;10.050;2023-04-24T06:11:47;2.90;;;0.93;;
74471;SDS011;62920;53.572;10.050;2023-04-24T06:14:12;3.08;;;1.20;;
74471;SDS011;62920;53.572;10.050;2023-04-24T06:16:38;13.48;;;4.55;;
74471;SDS011;62920;53.572;10.050;2023-04-24T06:19:04;5.90;;;1.00;;
74471;SDS011;62920;53.572;10.050;2023-04-24T06:21:30;3.67;;;1.00;;
74471;SDS011;62920;53.572;10.050;2023-04-24T06:23:56;2.30;;;1.00;;
74471;SDS011;62920;53.572;10.050;2023-04-24T06:26:21;2.47;;;0.95;;
74471;SDS011;62920;53.572;10.050;2023-04-24T06:28:49;2.85;;;1.00;;
74471;SDS011;62920;53.572;10.050;2023-04-24T06:31:15;5.38;;;1.08;;
74471;SDS011;62920;53.572;10.050;2023-04-24T06:33:41;2.65;;;1.17;;
74471;SDS011;62920;53.572;10.050;2023-04-24T06:36:06;2.63;;;0.95;;
74471;SDS011;62920;53.572;10.050;2023-04-24T06:38:31;3.58;;;1.40;;
74471;SDS011;62920;53.572;10.050;2023-04-24T06:40:57;2.50;;;0.88;;
74471;SDS011;62920;53.572;10.050;2023-04-24T06:43:22;2.80;;;1.17;;
74471;SDS011;62920;53.572;10.050;2023-04-24T06:45:47;2.38;;;0.95;;
74471;SDS011;62920;53.572;10.050;2023-04-24T06:48:13;3.47;;;1.20;;
74471;SDS011;62920;53.572;10.050;2023-04-24T06:50:38;2.85;;;1.20;;
74471;SDS011;62920;53.572;10.050;2023-04-24T06:53:03;4.30;;;1.00;;
74471;SDS011;62920;53.572;10.050;2023-04-24T06:55:29;5.47;;;1.17;;
74471;SDS011;62920;53.572;10.050;2023-04-24T06:57:54;2.65;;;0.90;;
74471;SDS011;62920;53.572;10.050;2023-04-24T07:00:20;3.63;;;1.10;;
74471;SDS011;62920;53.572;10.050;2023-04-24T07:02:45;2.95;;;1.10;;
74471;SDS011;62920;53.572;10.050;2023-04-24T07:05:11;2.88;;;1.10;;
74471;SDS011;62920;53.572;10.050;2023-04-24T07:10:04;3.45;;;1.17;;
74471;SDS011;62920;53.572;10.050;2023-04-24T07:12:30;3.10;;;1.60;;
74471;SDS011;62920;53.572;10.050;2023-04-24T07:14:55;3.42;;;1.40;;
74471;SDS011;62920;53.572;10.050;2023-04-24T07:17:20;3.83;;;1.52;;
74471;SDS011;62920;53.572;10.050;2023-04-24T07:19:46;3.60;;;1.50;;
74471;SDS011;62920;53.572;10.050;2023-04-24T07:22:11;3.80;;;1.50;;
74471;SDS011;62920;53.572;10.050;2023-04-24T07:24:41;4.38;;;2.22;;
74471;SDS011;62920;53.572;10.050;2023-04-24T07:27:08;4.15;;;1.75;;
74471;SDS011;62920;53.572;10.050;2023-04-24T07:29:33;3.97;;;1.67;;
74471;SDS011;62920;53.572;10.050;2023-04-24T07:31:59;3.40;;;1.73;;
74471;SDS011;62920;53.572;10.050;2023-04-24T07:34:24;3.95;;;1.70;;
74471;SDS011;62920;53.572;10.050;2023-04-24T07:36:50;3.58;;;1.90;;
74471;SDS011;62920;53.572;10.050;2023-04-24T07:39:16;3.50;;;1.60;;
74471;SDS011;62920;53.572;10.050;2023-04-24T07:41:41;3.10;;;1.70;;
74471;SDS011;62920;53.572;10.050;2023-04-24T07:44:06;3.47;;;1.60;;
74471;SDS011;62920;53.572;10.050;2023-04-24T07:46:32;3.45;;;1.40;;
74471;SDS011;62920;53.572;10.050;2023-04-24T07:48:57;4.28;;;2.05;;
74471;SDS011;62920;53.572;10.050;2023-04-24T07:51:24;3.40;;;1.80;;
74471;SDS011;62920;53.572;10.050;2023-04-24T07:53:52;5.72;;;2.13;;
74471;SDS011;62920;53.572;10.050;2023-04-24T07:56:17;5.10;;;2.15;;
74471;SDS011;62920;53.572;10.050;2023-04-24T07:58:42;7.20;;;2.30;;
74471;SDS011;62920;53.572;10.050;2023-04-24T08:01:08;4.03;;;2.22;;
74471;SDS011;62920;53.572;10.050;2023-04-24T08:03:33;4.32;;;2.53;;
74471;SDS011;62920;53.572;10.050;2023-04-24T08:05:58;3.40;;;1.88;;
74471;SDS011;62920;53.572;10.050;2023-04-24T08:08:24;6.05;;;2.35;;
74471;SDS011;62920;53.572;10.050;2023-04-24T08:10:49;5.35;;;2.30;;
74471;SDS011;62920;53.572;10.050;2023-04-24T08:13:15;3.92;;;2.42;;
74471;SDS011;62920;53.572;10.050;2023-04-24T08:15:40;5.15;;;2.47;;
74471;SDS011;62920;53.572;10.050;2023-04-24T08:18:06;4.40;;;2.65;;
74471;SDS011;62920;53.572;10.050;2023-04-24T08:20:32;5.07;;;2.72;;
74471;SDS011;62920;53.572;10.050;2023-04-24T08:22:57;5.13;;;2.85;;
74471;SDS011;62920;53.572;10.050;2023-04-24T08:25:22;4.32;;;2.60;;
74471;SDS011;62920;53.572;10.050;2023-04-24T08:27:49;6.20;;;2.55;;
74471;SDS011;62920;53.572;10.050;2023-04-24T08:30:15;6.32;;;3.30;;
74471;SDS011;62920;53.572;10.050;2023-04-24T08:32:41;6.28;;;2.80;;
74471;SDS011;62920;53.572;10.050;2023-04-24T08:35:06;5.30;;;3.10;;
74471;SDS011;62920;53.572;10.050;2023-04-24T08:37:34;5.18;;;2.63;;
74471;SDS011;62920;53.572;10.050;2023-04-24T08:39:59;3.92;;;2.60;;
74471;SDS011;62920;53.572;10.050;2023-04-24T08:42:25;5.25;;;2.60;;
74471;SDS011;62920;53.572;10.050;2023-04-24T08:44:53;6.40;;;2.90;;
74471;SDS011;62920;53.572;10.050;2023-04-24T08:47:20;4.55;;;2.72;;
74471;SDS011;62920;53.572;10.050;2023-04-24T08:49:46;5.38;;;3.15;;
74471;SDS011;62920;53.572;10.050;2023-04-24T08:52:13;6.22;;;2.90;;
74471;SDS011;62920;53.572;10.050;2023-04-24T08:54:38;5.68;;;3.00;;
74471;SDS011;62920;53.572;10.050;2023-04-24T08:57:04;4.50;;;3.10;;
74471;SDS011;62920;53.572;10.050;2023-04-24T08:59:32;6.47;;;2.80;;
74471;SDS011;62920;53.572;10.050;2023-04-24T09:01:59;4.55;;;2.90;;
74471;SDS011;62920;53.572;10.050;2023-04-24T09:04:24;6.30;;;3.38;;
74471;SDS011;62920;53.572;10.050;2023-04-24T09:06:51;5.25;;;3.30;;
74471;SDS011;62920;53.572;10.050;2023-04-24T09:09:17;5.28;;;3.22;;
74471;SDS011;62920;53.572;10.050;2023-04-24T09:11:45;5.07;;;3.03;;
74471;SDS011;62920;53.572;10.050;2023-04-24T09:14:11;5.18;;;3.40;;
74471;SDS011;62920;53.572;10.050;2023-04-24T09:16:37;6.43;;;3.47;;
74471;SDS011;62920;53.572;10.050;2023-04-24T09:19:02;5.95;;;3.15;;
74471;SDS011;62920;53.572;10.050;2023-04-24T09:21:32;5.88;;;3.17;;
74471;SDS011;62920;53.572;10.050;2023-04-24T09:24:08;7.55;;;4.50;;
74471;SDS011;62920;53.572;10.050;2023-04-24T09:26:45;24.77;;;10.32;;
74471;SDS011;62920;53.572;10.050;2023-04-24T09:31:41;12.70;;;4.47;;
74471;SDS011;62920;53.572;10.050;2023-04-24T09:34:07;18.10;;;4.30;;
74471;SDS011;62920;53.572;10.050;2023-04-24T09:36:36;7.22;;;3.38;;
74471;SDS011;62920;53.572;10.050;2023-04-24T09:39:06;6.20;;;3.33;;
74471;SDS011;62920;53.572;10.050;2023-04-24T09:41:33;4.70;;;3.13;;
74471;SDS011;62920;53.572;10.050;2023-04-24T09:44:20;5.80;;;3.45;;
74471;SDS011;62920;53.572;10.050;2023-04-24T09:46:51;6.22;;;3.90;;
74471;SDS011;62920;53.572;10.050;2023-04-24T09:49:25;7.57;;;3.03;;
74471;SDS011;62920;53.572;10.050;2023-04-24T09:51:51;5.80;;;3.03;;
74471;SDS011;62920;53.572;10.050;2023-04-24T09:54:18;6.55;;;3.47;;
74471;SDS011;62920;53.572;10.050;2023-04-24T09:56:46;7.15;;;3.70;;
74471;SDS011;62920;53.572;10.050;2023-04-24T09:59:15;6.15;;;3.42;;
74471;SDS011;62920;53.572;10.050;2023-04-24T10:01:42;7.55;;;3.55;;
74471;SDS011;62920;53.572;10.050;2023-04-24T10:04:19;7.93;;;3.72;;
74471;SDS011;62920;53.572;10.050;2023-04-24T10:06:45;6.30;;;3.85;;
74471;SDS011;62920;53.572;10.050;2023-04-24T10:09:11;6.68;;;3.85;;
74471;SDS011;62920;53.572;10.050;2023-04-24T10:11:37;6.20;;;3.88;;
74471;SDS011;62920;53.572;10.050;2023-04-24T10:14:06;5.60;;;3.53;;
74471;SDS011;62920;53.572;10.050;2023-04-24T10:16:35;6.95;;;3.70;;
74471;SDS011;62920;53.572;10.050;2023-04-24T10:19:01;8.10;;;4.18;;
74471;SDS011;62920;53.572;10.050;2023-04-24T10:21:28;5.88;;;3.75;;
74471;SDS011;62920;53.572;10.050;2023-04-24T10:23:53;7.70;;;4.20;;
74471;SDS011;62920;53.572;10.050;2023-04-24T10:26:19;7.15;;;4.53;;
74471;SDS011;62920;53.572;10.050;2023-04-24T10:28:44;8.18;;;4.63;;
74471;SDS011;62920;53.572;10.050;2023-04-24T10:31:10;8.25;;;4.53;;
74471;SDS011;62920;53.572;10.050;2023-04-24T10:33:36;12.32;;;4.63;;
74471;SDS011;62920;53.572;10.050;2023-04-24T10:36:03;9.35;;;5.35;;
74471;SDS011;62920;53.572;10.050;2023-04-24T10:38:29;9.07;;;4.93;;
74471;SDS011;62920;53.572;10.050;2023-04-24T10:41:11;11.18;;;5.18;;
74471;SDS011;62920;53.572;10.050;2023-04-24T10:43:45;9.70;;;5.22;;
74471;SDS011;62920;53.572;10.050;2023-04-24T10:46:16;9.52;;;5.40;;
74471;SDS011;62920;53.572;10.050;2023-04-24T10:48:51;9.63;;;5.47;;
74471;SDS011;62920;53.572;10.050;2023-04-24T10:51:19;12.15;;;5.97;;
74471;SDS011;62920;53.572;10.050;2023-04-24T10:53:47;10.80;;;5.65;;
74471;SDS011;62920;53.572;10.050;2023-04-24T10:56:15;9.43;;;5.38;;
74471;SDS011;62920;53.572;10.050;2023-04-24T10:58:41;10.88;;;5.50;;
74471;SDS011;62920;53.572;10.050;2023-04-24T11:03:56;10.95;;;5.88;;
74471;SDS011;62920;53.572;10.050;2023-04-24T11:06:30;9.65;;;5.43;;
74471;SDS011;62920;53.572;10.050;2023-04-24T11:09:09;11.52;;;5.80;;
74471;SDS011;62920;53.572;10.050;2023-04-24T11:11:37;13.00;;;5.72;;
74471;SDS011;62920;53.572;10.050;2023-04-24T11:14:06;9.63;;;5.75;;
74471;SDS011;62920;53.572;10.050;2023-04-24T11:16:36;8.70;;;5.30;;
74471;SDS011;62920;53.572;10.050;2023-04-24T11:21:45;9.05;;;5.32;;
74471;SDS011;62920;53.572;10.050;2023-04-24T11:27:06;10.32;;;5.55;;
74471;SDS011;62920;53.572;10.050;2023-04-24T11:29:51;11.10;;;5.80;;
74471;SDS011;62920;53.572;10.050;2023-04-24T11:37:39;9.23;;;5.95;;
74471;SDS011;62920;53.572;10.050;2023-04-24T11:40:05;11.20;;;6.80;;
74471;SDS011;62920;53.572;10.050;2023-04-24T11:42:42;10.40;;;6.10;;
74471;SDS011;62920;53.572;10.050;2023-04-24T11:45:09;10.23;;;6.00;;
74471;SDS011;62920;53.572;10.050;2023-04-24T11:47:36;9.15;;;5.53;;
74471;SDS011;62920;53.572;10.050;2023-04-24T11:50:02;8.63;;;5.40;;
74471;SDS011;62920;53.572;10.050;2023-04-24T11:52:29;8.32;;;4.90;;
74471;SDS011;62920;53.572;10.050;2023-04-24T11:54:55;8.32;;;4.47;;
74471;SDS011;62920;53.572;10.050;2023-04-24T11:57:21;6.38;;;4.18;;
74471;SDS011;62920;53.572;10.050;2023-04-24T11:59:47;8.13;;;4.30;;
74471;SDS011;62920;53.572;10.050;2023-04-24T12:02:46;8.35;;;4.60;;
74471;SDS011;62920;53.572;10.050;2023-04-24T12:05:05;7.97;;;4.10;;
74471;SDS011;62920;53.572;10.050;2023-04-24T12:07:31;8.68;;;4.63;;
74471;SDS011;62920;53.572;10.050;2023-04-24T12:10:07;6.88;;;3.90;;
74471;SDS011;62920;53.572;10.050;2023-04-24T12:12:34;6.93;;;4.10;;
74471;SDS011;62920;53.572;10.050;2023-04-24T12:14:59;7.72;;;4.20;;
74471;SDS011;62920;53.572;10.050;2023-04-24T12:17:29;6.93;;;4.07;;
74471;SDS011;62920;53.572;10.050;2023-04-24T12:20:03;7.15;;;3.65;;
74471;SDS011;62920;53.572;10.050;2023-04-24T12:22:45;7.28;;;4.22;;
74471;SDS011;62920;53.572;10.050;2023-04-24T12:25:11;7.88;;;4.15;;
74471;SDS011;62920;53.572;10.050;2023-04-24T12:27:37;7.82;;;4.63;;
74471;SDS011;62920;53.572;10.050;2023-04-24T12:30:09;5.72;;;3.92;;
74471;SDS011;62920;53.572;10.050;2023-04-24T12:32:40;8.40;;;3.75;;
74471;SDS011;62920;53.572;10.050;2023-04-24T12:35:06;6.93;;;4.57;;
74471;SDS011;62920;53.572;10.050;2023-04-24T12:37:32;7.30;;;3.83;;
74471;SDS011;62920;53.572;10.050;2023-04-24T12:42:27;8.80;;;4.22;;
74471;SDS011;62920;53.572;10.050;2023-04-24T12:45:02;10.73;;;4.15;;
74471;SDS011;62920;53.572;10.050;2023-04-24T12:47:30;6.47;;;4.22;;
74471;SDS011;62920;53.572;10.050;2023-04-24T12:49:56;6.47;;;3.55;;
74471;SDS011;62920;53.572;10.050;2023-04-24T12:52:22;6.55;;;4.07;;
74471;SDS011;62920;53.572;10.050;2023-04-24T12:54:48;6.55;;;4.13;;
74471;SDS011;62920;53.572;10.050;2023-04-24T12:57:15;6.00;;;3.88;;
74471;SDS011;62920;53.572;10.050;2023-04-24T12:59:40;7.47;;;4.55;;
74471;SDS011;62920;53.572;10.050;2023-04-24T13:02:06;6.47;;;4.10;;
74471;SDS011;62920;53.572;10.050;2023-04-24T13:04:31;6.05;;;3.70;;
74471;SDS011;62920;53.572;10.050;2023-04-24T13:06:57;5.25;;;3.53;;
74471;SDS011;62920;53.572;10.050;2023-04-24T13:09:22;7.65;;;3.30;;
74471;SDS011;62920;53.572;10.050;2023-04-24T13:11:49;8.30;;;4.10;;
74471;SDS011;62920;53.572;10.050;2023-04-24T13:14:15;6.28;;;3.90;;
74471;SDS011;62920;53.572;10.050;2023-04-24T13:16:40;6.00;;;3.58;;
74471;SDS011;62920;53.572;10.050;2023-04-24T13:19:06;6.47;;;4.05;;
74471;SDS011;62920;53.572;10.050;2023-04-24T13:21:31;6.03;;;4.10;;
74471;SDS011;62920;53.572;10.050;2023-04-24T13:23:56;8.75;;;3.90;;
74471;SDS011;62920;53.572;10.050;2023-04-24T13:26:22;6.00;;;3.42;;
74471;SDS011;62920;53.572;10.050;2023-04-24T13:28:47;7.70;;;3.60;;
74471;SDS011;62920;53.572;10.050;2023-04-24T13:31:13;6.63;;;3.80;;
74471;SDS011;62920;53.572;10.050;2023-04-24T13:33:38;6.28;;;3.83;;
74471;SDS011;62920;53.572;10.050;2023-04-24T13:36:04;8.00;;;3.72;;
74471;SDS011;62920;53.572;10.050;2023-04-24T13:38:29;6.22;;;3.60;;
74471;SDS011;62920;53.572;10.050;2023-04-24T13:40:54;4.97;;;3.08;;
74471;SDS011;62920;53.572;10.050;2023-04-24T13:43:20;4.82;;;3.22;;
74471;SDS011;62920;53.572;10.050;2023-04-24T13:45:45;5.78;;;3.63;;
74471;SDS011;62920;53.572;10.050;2023-04-24T13:48:11;6.80;;;3.72;;
74471;SDS011;62920;53.572;10.050;2023-04-24T13:50:36;6.10;;;3.50;;
74471;SDS011;62920;53.572;10.050;2023-04-24T13:53:02;8.00;;;3.90;;
74471;SDS011;62920;53.572;10.050;2023-04-24T13:55:27;5.50;;;3.30;;
74471;SDS011;62920;53.572;10.050;2023-04-24T13:57:53;7.13;;;3.17;;
74471;SDS011;62920;53.572;10.050;2023-04-24T14:02:45;6.43;;;3.05;;
74471;SDS011;62920;53.572;10.050;2023-04-24T14:05:11;5.05;;;3.10;;
74471;SDS011;62920;53.572;10.050;2023-04-24T14:07:39;6.38;;;3.47;;
74471;SDS011;62920;53.572;10.050;2023-04-24T14:10:04;5.65;;;3.13;;
74471;SDS011;62920;53.572;10.050;2023-04-24T14:12:30;4.85;;;3.17;;
74471;SDS011;62920;53.572;10.050;2023-04-24T14:14:55;7.03;;;3.50;;
74471;SDS011;62920;53.572;10.050;2023-04-24T14:17:21;5.22;;;3.13;;
74471;SDS011;62920;53.572;10.050;2023-04-24T14:19:46;5.63;;;3.03;;
74471;SDS011;62920;53.572;10.050;2023-04-24T14:22:12;7.70;;;3.33;;
74471;SDS011;62920;53.572;10.050;2023-04-24T14:24:37;4.90;;;2.70;;
74471;SDS011;62920;53.572;10.050;2023-04-24T14:27:03;4.38;;;2.47;;
74471;SDS011;62920;53.572;10.050;2023-04-24T14:29:28;6.75;;;3.10;;
74471;SDS011;62920;53.572;10.050;2023-04-24T14:31:53;5.63;;;2.88;;
74471;SDS011;62920;53.572;10.050;2023-04-24T14:34:19;5.88;;;3.85;;
74471;SDS011;62920;53.572;10.050;2023-04-24T14:36:44;5.60;;;3.13;;
74471;SDS011;62920;53.572;10.050;2023-04-24T14:39:10;4.55;;;2.50;;
74471;SDS011;62920;53.572;10.050;2023-04-24T14:41:35;4.25;;;2.50;;
74471;SDS011;62920;53.572;10.050;2023-04-24T14:44:02;4.45;;;2.53;;
74471;SDS011;62920;53.572;10.050;2023-04-24T14:46:28;6.63;;;2.75;;
74471;SDS011;62920;53.572;10.050;2023-04-24T14:48:55;5.20;;;2.83;;
74471;SDS011;62920;53.572;10.050;2023-04-24T14:51:21;5.80;;;3.63;;
74471;SDS011;62920;53.572;10.050;2023-04-24T14:53:46;5.93;;;3.63;;
74471;SDS011;62920;53.572;10.050;2023-04-24T14:56:12;6.68;;;4.10;;
74471;SDS011;62920;53.572;10.050;2023-04-24T14:58:38;6.43;;;4.50;;